Time;durP1;ratioP1;P1;durP2;ratioP2;P2;SDS_P1;SDS_P2;PMS_P1;PMS_P2;Temp;Humidity;BMP_temperature;BMP_pressure;BME280_temperature;BME280_humidity;BME280_pressure;Samples;Min_cycle;Max_cycle;Signal;HPM_P1;HPM_P2
2023/10/07 00:02:11;;;;;;;5.65;1.10;;;18.90;99.90;;;;;;5067390;28;20200;-74
2023/10/07 00:04:45;;;;;;;4.82;1.33;;;18.90;99.90;;;;;;5066420;28;20188;-76
2023/10/07 00:07:17;;;;;;;5.43;1.10;;;19.00;99.90;;;;;;5070194;28;20250;-75
2023/10/07 00:09:50;;;;;;;4.28;1.10;;;18.80;99.90;;;;;;5066730;28;20196;-73
2023/10/07 00:12:21;;;;;;;5.68;1.10;;;18.90;99.90;;;;;;5061646;28;20676;-73
2023/10/07 00:14:51;;;;;;;3.33;0.90;;;19.00;99.90;;;;;;5064893;28;20547;-73
2023/10/07 00:17:22;;;;;;;4.70;0.90;;;18.90;99.90;;;;;;5072542;28;20201;-74
2023/10/07 00:19:55;;;;;;;4.75;0.85;;;19.10;99.90;;;;;;5064558;28;20198;-73
2023/10/07 00:22:26;;;;;;;3.08;0.77;;;19.30;99.90;;;;;;5068393;28;20243;-71
2023/10/07 00:24:58;;;;;;;3.80;0.88;;;19.60;99.90;;;;;;5077578;28;20687;-74
2023/10/07 00:27:38;;;;;;;1.55;0.70;;;19.50;99.90;;;;;;5071120;28;20533;-72
2023/10/07 00:30:13;;;;;;;2.85;0.90;;;19.50;99.90;;;;;;5070291;28;20305;-73
2023/10/07 00:32:45;;;;;;;3.85;0.93;;;19.50;99.90;;;;;;5068604;28;20327;-76
2023/10/07 00:35:19;;;;;;;5.68;1.20;;;19.40;99.90;;;;;;5070022;28;20193;-75
2023/10/07 00:37:50;;;;;;;3.67;0.68;;;19.20;99.90;;;;;;5073729;28;20204;-72
2023/10/07 00:40:31;;;;;;;3.65;0.95;;;18.90;99.90;;;;;;5068524;28;20220;-73
2023/10/07 00:43:07;;;;;;;3.35;0.90;;;18.60;99.90;;;;;;5067750;28;20547;-72
2023/10/07 00:45:38;;;;;;;5.85;1.00;;;18.60;99.90;;;;;;5072163;28;20251;-74
2023/10/07 00:48:11;;;;;;;8.02;1.00;;;18.70;99.90;;;;;;5072902;28;20294;-72
2023/10/07 00:50:45;;;;;;;2.65;1.00;;;18.60;99.90;;;;;;5073861;28;20283;-73
2023/10/07 00:53:24;;;;;;;5.07;1.05;;;18.60;99.90;;;;;;5071753;28;20340;-73
2023/10/07 00:55:55;;;;;;;3.55;1.10;;;18.50;99.90;;;;;;5074465;28;20621;-72
2023/10/07 00:58:27;;;;;;;4.38;0.70;;;18.80;99.90;;;;;;5071159;28;20254;-71
2023/10/07 01:01:00;;;;;;;2.42;0.90;;;19.10;99.90;;;;;;5072410;28;20197;-71
2023/10/07 01:03:47;;;;;;;6.78;1.00;;;19.10;99.90;;;;;;5070163;28;20279;-73
2023/10/07 01:06:31;;;;;;;7.63;1.40;;;18.90;99.90;;;;;;5075415;28;20196;-76
2023/10/07 01:09:14;;;;;;;7.47;1.23;;;19.00;99.90;;;;;;5058947;28;20232;-77
2023/10/07 01:11:46;;;;;;;6.38;0.95;;;19.20;99.90;;;;;;5055843;28;20584;-75
2023/10/07 01:14:20;;;;;;;3.10;0.70;;;19.60;99.90;;;;;;5073133;28;20308;-77
2023/10/07 01:16:53;;;;;;;3.88;0.93;;;19.40;99.90;;;;;;5073835;28;20565;-78
2023/10/07 01:19:36;;;;;;;3.75;1.05;;;19.20;99.90;;;;;;5072251;28;20200;-74
2023/10/07 01:22:15;;;;;;;5.22;0.85;;;19.20;99.90;;;;;;5069588;28;20563;-75
2023/10/07 01:24:49;;;;;;;3.97;1.00;;;19.40;99.90;;;;;;5065429;28;20201;-76
2023/10/07 01:27:27;;;;;;;5.50;0.90;;;19.50;99.90;;;;;;5067201;28;20197;-77
2023/10/07 01:30:07;;;;;;;4.78;0.95;;;19.60;99.90;;;;;;5068827;28;20212;-75
2023/10/07 01:32:48;;;;;;;2.58;0.60;;;19.70;99.90;;;;;;5070611;28;20286;-78
2023/10/07 01:35:25;;;;;;;3.70;0.90;;;19.80;99.90;;;;;;5070725;28;20264;-75
2023/10/07 01:38:07;;;;;;;4.13;1.23;;;19.90;99.90;;;;;;5073751;28;20284;-77
2023/10/07 01:40:55;;;;;;;5.13;0.93;;;20.00;99.90;;;;;;5075481;28;20243;-76
2023/10/07 01:43:29;;;;;;;2.08;0.57;;;20.20;99.90;;;;;;5073900;28;20202;-77
2023/10/07 01:46:10;;;;;;;3.53;0.70;;;20.50;99.90;;;;;;5067830;28;20201;-77
2023/10/07 01:48:49;;;;;;;2.72;0.82;;;20.60;99.90;;;;;;5074019;28;20196;-79
2023/10/07 01:51:20;;;;;;;6.07;1.20;;;20.60;99.90;;;;;;5074748;28;20193;-77
2023/10/07 01:53:55;;;;;;;6.65;1.30;;;20.70;99.90;;;;;;5074741;28;20235;-77
2023/10/07 01:56:29;;;;;;;3.97;0.80;;;20.60;99.90;;;;;;5085113;28;20284;-77
2023/10/07 01:59:04;;;;;;;3.53;0.90;;;20.50;99.90;;;;;;5094773;28;20218;-78
2023/10/07 02:01:35;;;;;;;4.45;1.00;;;20.50;99.90;;;;;;5094912;28;20551;-75
2023/10/07 02:04:15;;;;;;;5.53;1.00;;;20.30;99.90;;;;;;5078656;28;20641;-76
2023/10/07 02:06:51;;;;;;;5.13;0.85;;;20.30;99.90;;;;;;5072511;28;20197;-76
2023/10/07 02:09:25;;;;;;;3.75;0.85;;;20.20;99.90;;;;;;5068551;28;20581;-72
2023/10/07 02:12:00;;;;;;;5.00;1.00;;;20.00;99.90;;;;;;5071197;28;20626;-80
2023/10/07 02:14:34;;;;;;;4.03;0.70;;;19.60;99.90;;;;;;5071735;28;20303;-77
2023/10/07 02:17:06;;;;;;;5.07;1.02;;;19.30;99.90;;;;;;5077960;28;20238;-76
2023/10/07 02:19:40;;;;;;;4.90;0.80;;;19.50;99.90;;;;;;5073208;28;20204;-77
2023/10/07 02:22:21;;;;;;;5.80;1.00;;;19.60;99.90;;;;;;5088394;28;20188;-76
2023/10/07 02:25:02;;;;;;;4.78;0.85;;;19.70;99.90;;;;;;5064601;28;20763;-80
2023/10/07 02:27:41;;;;;;;6.53;0.98;;;19.90;99.90;;;;;;5088847;28;20316;-77
2023/10/07 02:30:19;;;;;;;6.80;1.00;;;19.60;99.90;;;;;;5074314;28;20314;-76
2023/10/07 02:32:50;;;;;;;4.97;0.90;;;19.40;99.90;;;;;;5073725;28;20237;-75
2023/10/07 02:35:21;;;;;;;6.85;1.02;;;19.20;99.90;;;;;;5072756;28;20275;-77
2023/10/07 02:37:52;;;;;;;5.93;1.00;;;19.20;99.90;;;;;;5072059;28;20193;-79
2023/10/07 02:40:35;;;;;;;5.15;1.20;;;19.20;99.90;;;;;;5072011;28;20550;-76
2023/10/07 02:43:09;;;;;;;3.67;0.90;;;19.10;99.90;;;;;;5072363;28;20200;-78
2023/10/07 02:45:43;;;;;;;6.85;1.35;;;19.10;99.90;;;;;;5072576;28;20201;-76
2023/10/07 02:48:14;;;;;;;5.40;1.00;;;19.10;99.90;;;;;;5071597;28;20196;-78
2023/10/07 02:50:45;;;;;;;5.68;1.27;;;19.20;99.90;;;;;;5072623;28;20743;-80
2023/10/07 02:53:16;;;;;;;6.30;1.40;;;19.30;99.90;;;;;;5074471;28;20545;-76
2023/10/07 02:55:54;;;;;;;6.50;1.30;;;19.30;99.90;;;;;;5072525;28;20216;-76
2023/10/07 02:58:35;;;;;;;6.53;1.23;;;19.10;99.90;;;;;;5073477;28;20531;-72
2023/10/07 03:01:13;;;;;;;6.70;1.10;;;19.00;99.90;;;;;;5072599;28;20199;-76
2023/10/07 03:03:48;;;;;;;6.13;1.35;;;19.00;99.90;;;;;;5073660;28;20196;-70
2023/10/07 03:06:19;;;;;;;5.63;0.90;;;19.10;99.90;;;;;;5072586;28;20204;-72
2023/10/07 03:08:49;;;;;;;3.00;0.80;;;19.10;99.90;;;;;;5073399;28;20593;-71
2023/10/07 03:11:24;;;;;;;3.30;0.68;;;19.20;99.90;;;;;;5073163;28;20605;-71
2023/10/07 03:13:59;;;;;;;2.42;0.40;;;19.10;99.90;;;;;;5071791;28;20710;-70
2023/10/07 03:16:28;;;;;;;1.42;0.45;;;18.80;99.90;;;;;;5073101;28;20282;-71
2023/10/07 03:19:06;;;;;;;2.63;0.75;;;18.70;99.90;;;;;;5072678;28;20294;-71
2023/10/07 03:21:55;;;;;;;2.65;0.50;;;18.70;99.90;;;;;;5073088;28;20323;-77
2023/10/07 03:24:40;;;;;;;1.55;0.57;;;18.60;99.90;;;;;;5073193;28;20597;-76
2023/10/07 03:27:25;;;;;;;4.70;0.50;;;18.60;99.90;;;;;;5069120;28;20279;-72
2023/10/07 03:30:15;;;;;;;3.63;0.73;;;18.60;99.90;;;;;;5072880;28;20212;-74
2023/10/07 03:35:58;;;;;;;5.38;1.13;;;18.50;99.90;;;;;;5069979;28;20200;-72
2023/10/07 03:38:29;;;;;;;4.00;1.17;;;18.60;99.90;;;;;;5073020;28;20209;-74
2023/10/07 03:41:00;;;;;;;7.50;1.20;;;18.70;99.90;;;;;;5072631;28;20200;-77
2023/10/07 03:43:32;;;;;;;5.55;1.08;;;18.70;99.90;;;;;;5070394;28;20200;-76
2023/10/07 03:46:05;;;;;;;3.95;1.08;;;18.80;99.90;;;;;;5071819;28;20204;-74
2023/10/07 03:48:39;;;;;;;6.60;1.30;;;18.80;99.90;;;;;;5067531;28;20254;-74
2023/10/07 03:51:12;;;;;;;5.85;1.25;;;18.70;99.90;;;;;;5061764;28;20232;-72
2023/10/07 03:53:46;;;;;;;3.78;1.10;;;18.70;99.90;;;;;;5072621;28;20212;-72
2023/10/07 03:56:17;;;;;;;6.07;1.40;;;18.70;99.90;;;;;;5070542;28;20284;-72
2023/10/07 03:58:50;;;;;;;4.55;1.10;;;18.50;99.90;;;;;;5071965;28;20209;-72
2023/10/07 04:01:26;;;;;;;4.40;1.13;;;18.20;99.90;;;;;;5072673;28;20200;-71
2023/10/07 04:03:59;;;;;;;4.15;1.10;;;18.00;99.90;;;;;;5072488;28;20651;-71
2023/10/07 04:06:32;;;;;;;6.80;1.20;;;18.00;99.90;;;;;;5072924;28;20189;-72
2023/10/07 04:09:08;;;;;;;3.05;1.20;;;18.10;99.90;;;;;;5072542;28;20264;-71
2023/10/07 04:11:44;;;;;;;5.78;1.27;;;18.30;99.90;;;;;;5075574;28;20249;-73
2023/10/07 04:14:27;;;;;;;4.65;0.90;;;18.50;99.90;;;;;;5076635;28;20228;-71
2023/10/07 04:17:06;;;;;;;4.03;0.93;;;18.70;99.90;;;;;;5076667;28;20197;-72
2023/10/07 04:19:38;;;;;;;4.90;1.00;;;18.60;99.90;;;;;;5076682;28;20254;-71
2023/10/07 04:22:10;;;;;;;5.57;1.00;;;18.70;99.90;;;;;;5060119;28;20247;-71
2023/10/07 04:24:44;;;;;;;7.05;0.93;;;18.80;99.90;;;;;;5056425;28;20251;-72
2023/10/07 04:27:21;;;;;;;5.00;0.70;;;18.80;99.90;;;;;;5059054;28;20610;-71
2023/10/07 04:29:52;;;;;;;5.05;1.30;;;18.70;99.90;;;;;;5076254;28;20228;-72
2023/10/07 04:32:25;;;;;;;8.25;0.90;;;18.80;99.90;;;;;;5076143;28;20193;-71
2023/10/07 04:35:16;;;;;;;4.15;0.80;;;18.80;99.90;;;;;;5076027;28;20306;-71
2023/10/07 04:37:52;;;;;;;2.55;0.70;;;18.70;99.90;;;;;;5075378;28;20185;-72
2023/10/07 04:43:47;;;;;;;4.43;0.88;;;18.50;99.90;;;;;;5028500;28;20205;-70
2023/10/07 04:46:22;;;;;;;5.88;0.88;;;18.50;99.90;;;;;;5076266;28;20205;-74
2023/10/07 04:49:12;;;;;;;7.80;1.00;;;18.50;99.90;;;;;;5076028;28;20180;-71
2023/10/07 04:51:47;;;;;;;6.47;0.75;;;18.60;99.90;;;;;;5075831;28;20656;-78
2023/10/07 04:54:22;;;;;;;3.28;0.80;;;18.60;99.90;;;;;;5075829;28;20226;-76
2023/10/07 04:57:00;;;;;;;7.95;1.02;;;18.50;99.90;;;;;;5058202;28;20231;-73
2023/10/07 04:59:32;;;;;;;5.05;1.02;;;18.40;99.90;;;;;;5055773;28;20189;-72
2023/10/07 05:02:02;;;;;;;4.60;0.82;;;18.50;99.90;;;;;;5055809;28;20190;-76
2023/10/07 05:04:34;;;;;;;4.15;0.63;;;18.50;99.90;;;;;;5071612;28;20205;-77
2023/10/07 05:07:06;;;;;;;3.38;0.80;;;18.50;99.90;;;;;;5055453;28;20189;-76
2023/10/07 05:09:35;;;;;;;4.45;0.93;;;18.40;99.90;;;;;;5063706;28;20618;-74
2023/10/07 05:12:07;;;;;;;4.10;0.70;;;18.40;99.90;;;;;;5075612;28;20209;-73
2023/10/07 05:14:36;;;;;;;5.93;0.90;;;18.30;99.90;;;;;;5075510;28;20246;-78
2023/10/07 05:17:10;;;;;;;2.85;0.80;;;18.30;99.90;;;;;;5070137;28;20223;-75
2023/10/07 05:19:41;;;;;;;1.80;0.68;;;18.20;99.90;;;;;;5075439;28;20189;-75
2023/10/07 05:22:16;;;;;;;6.07;0.90;;;18.20;99.90;;;;;;5075170;28;20189;-72
2023/10/07 05:24:55;;;;;;;6.75;0.77;;;18.20;99.90;;;;;;5075762;28;20197;-76
2023/10/07 05:27:26;;;;;;;4.95;0.90;;;18.20;99.90;;;;;;5075718;28;20589;-70
2023/10/07 05:29:57;;;;;;;4.32;0.70;;;18.20;99.90;;;;;;5075168;28;20278;-70
2023/10/07 05:32:27;;;;;;;2.83;0.75;;;18.10;99.90;;;;;;5068639;28;20238;-71
2023/10/07 05:35:01;;;;;;;4.93;0.90;;;18.10;99.90;;;;;;5074682;28;20224;-71
2023/10/07 05:37:33;;;;;;;2.30;0.70;;;18.20;99.90;;;;;;5075155;28;20224;-71
2023/10/07 05:40:04;;;;;;;4.55;0.80;;;18.20;99.90;;;;;;5074706;28;20189;-71
2023/10/07 05:42:35;;;;;;;3.85;0.63;;;18.10;99.90;;;;;;5073838;28;20238;-75
2023/10/07 05:45:07;;;;;;;4.57;1.17;;;18.20;99.90;;;;;;5074738;28;20608;-75
2023/10/07 05:47:37;;;;;;;4.90;1.15;;;18.10;99.90;;;;;;5061953;28;20212;-76
2023/10/07 05:50:12;;;;;;;2.55;0.80;;;18.00;99.90;;;;;;5073262;28;20341;-75
2023/10/07 05:52:43;;;;;;;4.43;0.70;;;18.00;99.90;;;;;;5074201;28;20184;-74
2023/10/07 05:55:14;;;;;;;3.90;0.80;;;18.30;99.90;;;;;;5074561;28;20205;-75
2023/10/07 05:57:45;;;;;;;3.00;0.77;;;18.10;99.90;;;;;;5071091;28;20193;-75
2023/10/07 06:00:17;;;;;;;3.70;0.70;;;18.00;99.90;;;;;;5077143;28;20668;-75
2023/10/07 06:02:47;;;;;;;1.50;0.57;;;18.00;99.90;;;;;;5074596;28;20189;-76
2023/10/07 06:05:20;;;;;;;3.67;0.75;;;18.00;99.90;;;;;;5071906;28;20216;-75
2023/10/07 06:07:51;;;;;;;6.15;1.10;;;18.00;99.90;;;;;;5073583;28;20331;-76
2023/10/07 06:10:22;;;;;;;4.40;0.70;;;18.20;99.90;;;;;;5070878;28;20201;-74
2023/10/07 06:12:55;;;;;;;3.28;0.98;;;18.20;99.90;;;;;;5072407;28;20193;-72
2023/10/07 06:15:25;;;;;;;5.75;0.80;;;18.40;99.90;;;;;;5071907;28;20764;-74
2023/10/07 06:17:56;;;;;;;4.57;0.73;;;18.40;99.90;;;;;;5072589;28;20191;-75
2023/10/07 06:20:36;;;;;;;4.60;0.90;;;18.40;99.90;;;;;;5072956;28;20205;-71
2023/10/07 06:23:15;;;;;;;5.75;0.93;;;18.30;99.90;;;;;;5072942;28;20205;-75
2023/10/07 06:25:48;;;;;;;6.78;0.70;;;18.30;99.90;;;;;;5072727;28;20204;-76
2023/10/07 06:28:29;;;;;;;6.50;1.08;;;18.30;99.90;;;;;;5071912;28;20220;-74
2023/10/07 06:31:10;;;;;;;4.07;0.80;;;18.30;99.90;;;;;;5073752;28;20605;-76
2023/10/07 06:33:42;;;;;;;3.63;0.80;;;18.30;99.90;;;;;;5071988;28;20696;-71
2023/10/07 06:36:15;;;;;;;3.92;0.73;;;18.10;99.90;;;;;;5073472;28;20215;-73
2023/10/07 06:38:50;;;;;;;3.30;0.80;;;17.80;99.90;;;;;;5072191;28;20193;-75
2023/10/07 06:41:21;;;;;;;3.15;0.70;;;17.70;99.90;;;;;;5070121;28;20200;-73
2023/10/07 06:43:53;;;;;;;3.58;0.65;;;17.60;99.90;;;;;;5069973;28;20201;-75
2023/10/07 06:46:24;;;;;;;3.47;0.70;;;17.60;99.90;;;;;;5073280;28;20723;-74
2023/10/07 06:48:55;;;;;;;2.97;1.00;;;17.50;99.90;;;;;;5067878;28;20199;-75
2023/10/07 06:51:29;;;;;;;2.70;0.75;;;17.50;99.90;;;;;;5065929;28;20214;-75
2023/10/07 06:54:03;;;;;;;3.05;0.75;;;17.40;99.90;;;;;;5063222;28;20192;-74
2023/10/07 06:56:34;;;;;;;5.30;0.70;;;17.40;99.90;;;;;;5067060;28;20637;-75
2023/10/07 06:59:06;;;;;;;3.08;0.77;;;17.40;99.90;;;;;;5066754;28;20205;-75
2023/10/07 07:01:51;;;;;;;4.00;0.60;;;17.40;99.90;;;;;;5070134;28;20197;-76
2023/10/07 07:04:22;;;;;;;4.18;0.80;;;17.20;99.90;;;;;;5066244;28;20208;-75
2023/10/07 07:09:58;;;;;;;3.92;0.80;;;16.90;99.90;;;;;;5062861;28;20681;-77
2023/10/07 07:12:28;;;;;;;3.72;0.80;;;16.80;99.90;;;;;;5069979;28;20258;-75
2023/10/07 07:15:04;;;;;;;5.60;0.70;;;16.70;99.90;;;;;;5069634;28;20235;-75
2023/10/07 07:17:43;;;;;;;3.50;0.68;;;16.60;99.90;;;;;;5068540;28;20193;-75
2023/10/07 07:23:10;;;;;;;4.03;0.80;;;16.60;99.90;;;;;;5032340;28;20764;-74
2023/10/07 07:25:43;;;;;;;4.00;1.00;;;16.60;99.90;;;;;;5071331;28;20575;-75
2023/10/07 07:28:16;;;;;;;7.53;2.67;;;16.60;99.90;;;;;;5071072;28;20691;-75
2023/10/07 07:30:47;;;;;;;3.92;1.10;;;16.50;99.90;;;;;;5069272;28;20197;-75
2023/10/07 07:33:22;;;;;;;3.55;0.93;;;16.50;99.90;;;;;;5071660;28;20228;-75
2023/10/07 07:35:56;;;;;;;2.97;1.10;;;16.50;99.90;;;;;;5072207;28;20235;-74
2023/10/07 07:38:32;;;;;;;2.20;0.70;;;16.50;99.90;;;;;;5071244;28;20216;-75
2023/10/07 07:41:09;;;;;;;5.35;0.95;;;16.40;99.90;;;;;;5072156;28;20683;-72
2023/10/07 07:43:40;;;;;;;4.68;1.85;;;16.40;99.90;;;;;;5071892;28;20283;-75
2023/10/07 07:49:07;;;;;;;4.05;1.30;;;16.30;99.90;;;;;;5077576;28;20193;-76
2023/10/07 07:51:39;;;;;;;2.70;0.93;;;16.20;99.90;;;;;;5073404;28;20275;-74
2023/10/07 07:54:14;;;;;;;2.17;0.73;;;16.20;99.90;;;;;;5073572;28;20208;-72
2023/10/07 07:56:45;;;;;;;2.05;0.60;;;16.10;99.90;;;;;;5072067;28;20203;-72
2023/10/07 07:59:18;;;;;;;2.33;0.73;;;16.10;99.90;;;;;;5061955;28;20233;-73
2023/10/07 08:01:53;;;;;;;2.47;0.55;;;16.10;99.90;;;;;;5071079;28;20675;-74
2023/10/07 08:07:18;;;;;;;3.00;0.85;;;16.00;99.90;;;;;;5071547;28;20193;-72
2023/10/07 08:09:51;;;;;;;2.13;0.68;;;16.00;99.90;;;;;;5071897;28;20603;-74
2023/10/07 08:12:28;;;;;;;5.07;0.80;;;15.90;99.90;;;;;;5071634;28;20228;-72
2023/10/07 08:15:05;;;;;;;1.33;0.50;;;15.90;99.90;;;;;;5072289;28;20208;-73
2023/10/07 08:17:37;;;;;;;2.03;0.80;;;15.90;99.90;;;;;;5075797;28;20259;-72
2023/10/07 08:20:11;;;;;;;4.55;0.90;;;15.80;99.90;;;;;;5074782;28;20201;-74
2023/10/07 08:22:47;;;;;;;4.47;0.85;;;15.80;99.90;;;;;;5072299;28;20712;-72
2023/10/07 08:25:26;;;;;;;1.95;0.70;;;15.80;99.90;;;;;;5073963;28;20575;-73
2023/10/07 08:28:03;;;;;;;3.15;0.63;;;15.80;99.90;;;;;;5075109;28;20224;-72
2023/10/07 08:30:39;;;;;;;3.30;0.60;;;15.80;99.90;;;;;;5073039;28;20196;-72
2023/10/07 08:33:12;;;;;;;4.85;1.00;;;15.70;99.90;;;;;;5075884;28;20228;-72
2023/10/07 08:35:43;;;;;;;4.40;0.90;;;15.70;99.90;;;;;;5062401;28;20212;-74
2023/10/07 08:38:29;;;;;;;4.18;1.13;;;15.70;99.90;;;;;;5073709;28;20246;-72
2023/10/07 08:41:07;;;;;;;5.53;1.23;;;15.70;99.90;;;;;;5069286;28;20255;-72
2023/10/07 08:43:43;;;;;;;4.47;1.00;;;15.70;99.90;;;;;;5075318;28;20192;-74
2023/10/07 08:46:16;;;;;;;7.47;0.80;;;15.70;99.90;;;;;;5075698;28;20204;-73
2023/10/07 08:48:56;;;;;;;1.98;0.70;;;15.70;99.90;;;;;;5072187;28;20205;-72
2023/10/07 08:51:29;;;;;;;2.15;0.73;;;15.70;99.90;;;;;;5065343;28;20201;-72
2023/10/07 08:54:07;;;;;;;4.00;0.95;;;15.60;99.90;;;;;;5066030;28;20193;-72
2023/10/07 08:56:42;;;;;;;3.50;0.80;;;15.60;99.90;;;;;;5074662;28;20579;-74
2023/10/07 08:59:14;;;;;;;4.72;1.38;;;15.60;99.90;;;;;;5075312;28;20242;-73
2023/10/07 09:01:46;;;;;;;4.95;1.33;;;15.60;99.90;;;;;;5070794;28;20279;-74
2023/10/07 09:04:18;;;;;;;6.15;1.30;;;15.70;99.90;;;;;;5069850;28;20204;-74
2023/10/07 09:06:50;;;;;;;6.13;1.60;;;15.70;99.90;;;;;;5071146;28;20200;-74
2023/10/07 09:09:37;;;;;;;5.68;1.10;;;15.70;99.90;;;;;;5071130;28;20200;-74
2023/10/07 09:12:14;;;;;;;4.80;1.10;;;15.70;99.90;;;;;;5072792;28;20743;-74
2023/10/07 09:14:52;;;;;;;3.97;0.82;;;15.70;99.90;;;;;;5071672;28;20207;-74
2023/10/07 09:17:23;;;;;;;1.48;0.82;;;15.70;99.90;;;;;;5073258;28;20201;-75
2023/10/07 09:19:58;;;;;;;3.65;0.82;;;15.70;99.90;;;;;;5074829;28;20224;-74
2023/10/07 09:22:33;;;;;;;5.78;0.88;;;15.60;99.90;;;;;;5062560;28;20253;-74
2023/10/07 09:25:16;;;;;;;7.38;1.00;;;15.60;99.90;;;;;;5071333;28;20196;-74
2023/10/07 09:27:54;;;;;;;2.35;0.70;;;15.50;99.90;;;;;;5060368;28;20220;-73
2023/10/07 09:30:44;;;;;;;3.60;0.80;;;15.50;99.90;;;;;;5063075;28;20224;-72
2023/10/07 09:33:17;;;;;;;4.22;0.93;;;15.50;99.90;;;;;;5054399;28;20225;-73
2023/10/07 09:35:49;;;;;;;4.22;0.80;;;15.50;99.90;;;;;;5057185;28;20219;-73
2023/10/07 09:38:29;;;;;;;4.38;0.77;;;15.50;99.90;;;;;;5058939;28;20271;-73
2023/10/07 09:41:12;;;;;;;2.70;0.75;;;15.40;99.90;;;;;;5059762;28;20227;-72
2023/10/07 09:43:51;;;;;;;4.15;1.08;;;15.40;99.90;;;;;;5062947;28;20192;-75
2023/10/07 09:46:27;;;;;;;3.53;0.85;;;15.40;99.90;;;;;;5057756;28;20611;-73
2023/10/07 09:49:05;;;;;;;4.57;0.88;;;15.40;99.90;;;;;;5062661;28;20189;-74
2023/10/07 09:51:47;;;;;;;3.08;0.80;;;15.40;99.90;;;;;;5059001;28;20193;-72
2023/10/07 09:54:36;;;;;;;3.40;1.02;;;15.40;99.90;;;;;;5059344;28;20197;-72
2023/10/07 09:57:21;;;;;;;4.47;1.15;;;15.30;99.90;;;;;;5055368;28;20214;-72
2023/10/07 10:00:32;;;;;;;2.50;1.10;;;15.30;99.90;;;;;;5058730;28;20228;-74
2023/10/07 10:03:33;;;;;;;2.63;0.90;;;15.20;99.90;;;;;;5060404;28;20201;-73
2023/10/07 10:06:28;;;;;;;3.15;1.20;;;15.20;99.90;;;;;;5059037;28;20263;-73
2023/10/07 10:09:09;;;;;;;3.40;1.08;;;15.20;99.90;;;;;;5068482;28;20221;-75
2023/10/07 10:11:51;;;;;;;3.58;1.08;;;15.10;99.90;;;;;;5066294;28;20197;-76
2023/10/07 10:14:56;;;;;;;3.10;1.10;;;15.10;99.90;;;;;;5072060;28;20232;-77
2023/10/07 10:17:39;;;;;;;3.60;0.88;;;15.10;99.90;;;;;;5073343;28;20678;-77
2023/10/07 10:20:12;;;;;;;2.22;0.70;;;15.10;99.90;;;;;;5072183;28;20722;-76
2023/10/07 10:22:52;;;;;;;4.13;1.30;;;15.00;99.90;;;;;;5072982;28;20203;-75
2023/10/07 10:25:36;;;;;;;3.10;1.15;;;15.00;99.90;;;;;;5072671;28;20201;-76
2023/10/07 10:28:10;;;;;;;1.70;0.80;;;15.00;99.90;;;;;;5071382;28;20244;-74
2023/10/07 10:30:53;;;;;;;4.88;0.90;;;15.00;99.90;;;;;;5071887;28;20567;-75
2023/10/07 10:33:28;;;;;;;2.25;0.90;;;15.00;99.90;;;;;;5071373;28;20236;-73
2023/10/07 10:36:07;;;;;;;3.95;0.80;;;15.00;99.90;;;;;;5060752;28;20204;-76
2023/10/07 10:38:45;;;;;;;3.00;0.70;;;15.00;99.90;;;;;;5058262;28;20224;-75
2023/10/07 10:41:15;;;;;;;5.72;1.05;;;15.00;99.90;;;;;;5065091;28;20203;-75
2023/10/07 10:43:47;;;;;;;2.97;0.80;;;14.90;99.90;;;;;;5061302;28;20229;-76
2023/10/07 10:46:18;;;;;;;2.70;0.98;;;14.90;99.90;;;;;;5058232;28;20272;-75
2023/10/07 10:48:54;;;;;;;2.92;0.90;;;14.90;99.90;;;;;;5062442;28;20590;-75
2023/10/07 10:51:33;;;;;;;2.65;0.75;;;14.90;99.90;;;;;;5065872;28;20223;-74
2023/10/07 10:54:05;;;;;;;2.95;1.00;;;14.90;99.90;;;;;;5055400;28;20303;-75
2023/10/07 10:56:35;;;;;;;4.80;1.10;;;14.80;99.90;;;;;;5064975;28;20220;-76
2023/10/07 10:59:18;;;;;;;2.45;1.25;;;14.80;99.90;;;;;;5062446;28;20193;-73
2023/10/07 11:01:50;;;;;;;3.05;1.00;;;14.80;99.90;;;;;;5072883;28;20197;-74
2023/10/07 11:04:32;;;;;;;4.22;1.10;;;14.80;99.90;;;;;;5069559;28;20583;-76
2023/10/07 11:07:04;;;;;;;2.72;1.25;;;14.80;99.90;;;;;;5072702;28;20192;-74
2023/10/07 11:09:36;;;;;;;2.67;1.10;;;14.80;99.90;;;;;;5066478;28;20204;-76
2023/10/07 11:12:12;;;;;;;5.82;1.60;;;14.80;99.90;;;;;;5078985;28;20200;-74
2023/10/07 11:14:43;;;;;;;4.63;1.20;;;14.70;99.90;;;;;;5063545;28;20242;-75
2023/10/07 11:17:15;;;;;;;3.58;1.20;;;14.70;99.90;;;;;;5066707;28;20212;-74
2023/10/07 11:19:52;;;;;;;2.80;1.05;;;14.70;99.90;;;;;;5074803;28;20688;-74
2023/10/07 11:22:23;;;;;;;5.13;1.38;;;14.70;99.90;;;;;;5065968;28;20223;-74
2023/10/07 11:24:55;;;;;;;3.72;1.48;;;14.70;99.90;;;;;;5059981;28;20212;-73
2023/10/07 11:27:26;;;;;;;5.18;1.58;;;14.70;99.90;;;;;;5072000;28;20220;-72
2023/10/07 11:30:03;;;;;;;3.85;1.17;;;14.70;99.90;;;;;;5068794;28;20251;-73
2023/10/07 11:32:36;;;;;;;3.58;1.10;;;14.70;99.90;;;;;;5069162;28;20330;-74
2023/10/07 11:35:19;;;;;;;3.35;1.10;;;14.70;99.90;;;;;;5065181;28;20188;-75
2023/10/07 11:37:57;;;;;;;3.25;0.90;;;14.70;99.90;;;;;;5065650;28;20285;-73
2023/10/07 11:40:28;;;;;;;3.42;1.15;;;14.60;99.90;;;;;;5063779;28;20204;-74
2023/10/07 11:43:04;;;;;;;3.08;1.20;;;14.60;99.90;;;;;;5067145;28;20230;-72
2023/10/07 11:45:35;;;;;;;3.42;1.13;;;14.60;99.90;;;;;;5066436;28;20250;-74
2023/10/07 11:48:08;;;;;;;6.85;1.48;;;14.60;99.90;;;;;;5067267;28;20185;-73
2023/10/07 11:50:41;;;;;;;4.80;1.35;;;14.50;99.90;;;;;;5065306;28;20203;-73
2023/10/07 11:53:11;;;;;;;5.03;1.30;;;14.60;99.90;;;;;;5070107;28;20196;-73
2023/10/07 11:55:42;;;;;;;4.40;1.25;;;14.50;99.90;;;;;;5067504;28;20213;-73
2023/10/07 11:58:15;;;;;;;5.00;1.60;;;14.50;99.90;;;;;;5068828;28;20243;-74
2023/10/07 12:00:46;;;;;;;4.88;1.20;;;14.50;99.90;;;;;;5070630;28;20566;-72
2023/10/07 12:03:17;;;;;;;3.15;1.25;;;14.50;99.90;;;;;;5065537;28;20193;-74
2023/10/07 12:05:49;;;;;;;7.15;1.58;;;14.50;99.90;;;;;;5065867;28;20197;-72
2023/10/07 12:08:21;;;;;;;3.97;1.50;;;14.50;99.90;;;;;;5070533;28;20189;-74
2023/10/07 12:10:52;;;;;;;5.65;1.95;;;14.50;99.90;;;;;;5071631;28;20240;-72
2023/10/07 12:13:23;;;;;;;4.55;1.60;;;14.50;99.90;;;;;;5072734;28;20193;-72
2023/10/07 12:15:53;;;;;;;4.47;1.42;;;14.50;99.90;;;;;;5071540;28;20209;-72
2023/10/07 12:18:25;;;;;;;4.53;1.50;;;14.60;99.90;;;;;;5072851;28;20211;-72
2023/10/07 12:21:00;;;;;;;4.40;1.80;;;14.60;99.90;;;;;;5072836;28;20699;-73
2023/10/07 12:23:32;;;;;;;3.90;1.70;;;14.60;99.90;;;;;;5072735;28;20191;-72
2023/10/07 12:26:03;;;;;;;5.50;1.80;;;14.60;99.90;;;;;;5072436;28;20196;-74
2023/10/07 12:28:34;;;;;;;7.22;1.90;;;14.70;99.90;;;;;;5073270;28;20258;-72
2023/10/07 12:31:12;;;;;;;4.43;1.40;;;14.70;99.90;;;;;;5073005;28;20728;-74
2023/10/07 12:33:43;;;;;;;6.88;1.90;;;14.70;99.90;;;;;;5075700;28;20239;-74
2023/10/07 12:36:18;;;;;;;5.55;1.80;;;14.70;99.90;;;;;;5074889;28;20270;-74
2023/10/07 12:38:49;;;;;;;5.50;1.63;;;14.70;99.90;;;;;;5076295;28;20205;-74
2023/10/07 12:41:21;;;;;;;7.95;1.70;;;14.70;99.90;;;;;;5067319;28;20653;-74
2023/10/07 12:43:51;;;;;;;4.72;1.77;;;14.70;99.90;;;;;;5056165;28;20543;-74
2023/10/07 12:46:22;;;;;;;3.72;1.50;;;14.70;99.90;;;;;;5074451;28;20207;-75
2023/10/07 12:48:53;;;;;;;3.85;1.70;;;14.60;99.90;;;;;;5075821;28;20201;-74
2023/10/07 12:51:25;;;;;;;4.63;1.75;;;14.60;99.90;;;;;;5075486;28;20281;-75
2023/10/07 12:53:58;;;;;;;3.85;1.33;;;14.60;99.90;;;;;;5071774;28;20196;-75
2023/10/07 12:56:31;;;;;;;3.60;1.50;;;14.60;99.90;;;;;;5077554;28;20236;-75
2023/10/07 12:59:01;;;;;;;4.03;1.50;;;14.50;99.90;;;;;;5074108;28;20695;-74
2023/10/07 13:01:32;;;;;;;2.83;1.35;;;14.50;99.90;;;;;;5076026;28;20200;-75
2023/10/07 13:04:04;;;;;;;3.35;1.30;;;14.50;99.90;;;;;;5075570;28;20233;-74
2023/10/07 13:06:42;;;;;;;4.47;1.20;;;14.40;99.90;;;;;;5075386;28;20262;-74
2023/10/07 13:09:16;;;;;;;3.63;1.40;;;14.40;99.90;;;;;;5075556;28;20557;-74
2023/10/07 13:11:49;;;;;;;4.20;1.40;;;14.40;99.90;;;;;;5075263;28;20246;-74
2023/10/07 13:14:19;;;;;;;1.90;1.17;;;14.40;99.90;;;;;;5075606;28;20189;-74
2023/10/07 13:16:56;;;;;;;4.93;1.20;;;14.40;99.90;;;;;;5075465;28;20220;-74
2023/10/07 13:19:31;;;;;;;5.22;1.30;;;14.40;99.90;;;;;;5075833;28;20228;-74
2023/10/07 13:22:05;;;;;;;5.32;1.45;;;14.40;99.90;;;;;;5075271;28;20193;-75
2023/10/07 13:24:35;;;;;;;4.25;1.10;;;14.40;99.90;;;;;;5075437;28;20274;-74
2023/10/07 13:27:08;;;;;;;3.42;1.20;;;14.40;99.90;;;;;;5075327;28;20271;-74
2023/10/07 13:29:39;;;;;;;3.10;1.20;;;14.40;99.90;;;;;;5073889;28;20197;-74
2023/10/07 13:32:10;;;;;;;1.88;1.30;;;14.40;99.90;;;;;;5074390;28;20587;-75
2023/10/07 13:34:41;;;;;;;5.38;1.38;;;14.40;99.90;;;;;;5072872;28;20232;-75
2023/10/07 13:37:13;;;;;;;3.92;1.20;;;14.40;99.90;;;;;;5073635;28;20212;-74
2023/10/07 13:39:44;;;;;;;4.00;1.10;;;14.50;99.90;;;;;;5073695;28;20251;-74
2023/10/07 13:42:16;;;;;;;5.95;1.33;;;14.50;99.90;;;;;;5074304;28;20721;-74
2023/10/07 13:44:46;;;;;;;5.25;1.70;;;14.50;99.90;;;;;;5074130;28;20731;-74
2023/10/07 13:47:17;;;;;;;4.78;1.70;;;14.50;99.90;;;;;;5074385;28;20261;-74